Terminal Aerodrome Forecast
Issued by NWS

Home | Current Version | Previous Version | Text Only | Print | Product List | Glossary On
Versions: 1 2 3 4 5 6 7 8 9 10 11 12 13
000
FTUS44 KCRP 291740
TAFALI
TAF
KALI 291740Z 2918/3018 20010KT P6SM SCT035
     FM292100 13015G20KT P6SM SCT040
     FM300300 15009KT P6SM SCT015
     FM301000 16005KT 3SM BR BKN012
      TEMPO 3012/3014 1SM BR
     FM301600 14012KT P6SM SCT025=

USA.gov is the U.S. government's official web portal to all federal, state and local government web resources and services.